createdAt,value
2023-03-26T00:00:07.187Z,8
2023-03-26T00:05:10.016Z,5.8
2023-03-26T00:10:06.888Z,6.8
2023-03-26T00:15:07.249Z,8.9
2023-03-26T00:20:06.643Z,8.1
2023-03-26T00:25:06.749Z,10.3
2023-03-26T00:30:07.046Z,9.9
2023-03-26T00:35:07.415Z,16
2023-03-26T00:40:07.451Z,14.4
2023-03-26T00:45:06.722Z,15.1
2023-03-26T00:50:06.997Z,4
2023-03-26T00:55:07.285Z,10.7
2023-03-26T01:00:06.950Z,4.6
2023-03-26T01:05:06.974Z,5.3
2023-03-26T01:10:06.764Z,4.6
2023-03-26T01:15:06.586Z,6.7
2023-03-26T01:20:07.215Z,5.2
2023-03-26T01:25:06.916Z,6
2023-03-26T01:30:06.376Z,3.3
2023-03-26T01:35:07.026Z,5
2023-03-26T01:40:07.085Z,4.4
2023-03-26T01:45:07.140Z,6.1
2023-03-26T01:50:06.913Z,4.8
2023-03-26T01:55:07.339Z,4.7
2023-03-26T02:00:06.580Z,5.9
2023-03-26T02:05:07.004Z,4.8
2023-03-26T02:10:07.371Z,8.2
2023-03-26T02:15:06.249Z,6
2023-03-26T02:20:07.137Z,7.4
2023-03-26T02:25:06.968Z,6.1
2023-03-26T02:30:07.065Z,9.9
2023-03-26T02:35:06.890Z,5.5
2023-03-26T02:40:07.910Z,7.9
2023-03-26T02:45:06.530Z,5.8
2023-03-26T02:50:07.120Z,12.2
2023-03-26T02:55:06.482Z,4.5
2023-03-26T03:00:07.431Z,5.2
2023-03-26T03:05:06.634Z,9.8
2023-03-26T03:10:07.208Z,10.7
2023-03-26T03:15:06.446Z,8
2023-03-26T03:20:07.354Z,7.6
2023-03-26T03:25:06.246Z,5.6
2023-03-26T03:30:07.346Z,6.4
2023-03-26T03:35:06.387Z,6
2023-03-26T03:40:06.716Z,5.7
2023-03-26T03:45:06.519Z,6.6
2023-03-26T03:50:07.242Z,6.8
2023-03-26T03:55:06.999Z,12.7
2023-03-26T04:00:06.996Z,8
2023-03-26T04:05:06.878Z,6.6
2023-03-26T04:10:07.314Z,6.4
2023-03-26T04:15:06.482Z,8.4
2023-03-26T04:20:07.431Z,9.1
2023-03-26T04:25:06.956Z,7.2
2023-03-26T04:30:06.692Z,11
2023-03-26T04:35:06.703Z,12.3
2023-03-26T04:40:09.604Z,12.8
2023-03-26T04:45:06.627Z,9.3
2023-03-26T04:50:07.004Z,9
2023-03-26T04:55:06.561Z,8.6
2023-03-26T05:00:06.976Z,7.9
2023-03-26T05:05:06.443Z,8
2023-03-26T05:10:07.405Z,7.1
2023-03-26T05:15:07.039Z,7.8
2023-03-26T05:20:06.640Z,6.8
2023-03-26T05:25:07.297Z,8.1
2023-03-26T05:30:07.468Z,8
2023-03-26T05:35:06.541Z,6.9
2023-03-26T05:40:08.404Z,10.2
2023-03-26T05:45:06.537Z,10.2
2023-03-26T05:50:07.461Z,9.9
2023-03-26T05:55:07.335Z,17
2023-03-26T06:00:09.430Z,12.5
2023-03-26T06:05:06.919Z,13.4
2023-03-26T06:10:08.725Z,11
2023-03-26T06:15:07.224Z,10.8
2023-03-26T06:20:08.758Z,12.3
2023-03-26T06:25:08.175Z,11.2
2023-03-26T06:30:07.274Z,13.4
2023-03-26T06:35:07.508Z,7.1
2023-03-26T06:40:09.187Z,9.7
2023-03-26T06:45:08.706Z,7.4
2023-03-26T06:50:06.664Z,6.1
2023-03-26T06:55:07.122Z,7.2
2023-03-26T07:00:08.088Z,8.5
2023-03-26T07:05:08.659Z,4.6
2023-03-26T07:10:09.574Z,4.3
2023-03-26T07:15:07.817Z,6.4
2023-03-26T07:20:06.825Z,6.8
2023-03-26T07:25:06.350Z,7.9
2023-03-26T07:30:08.166Z,7.9
2023-03-26T07:35:07.097Z,6.5
2023-03-26T07:40:08.464Z,7.1
2023-03-26T07:45:06.977Z,4.2
2023-03-26T07:50:06.793Z,3.4
2023-03-26T07:55:06.954Z,10.8
2023-03-26T08:00:08.580Z,9.5
2023-03-26T08:05:07.138Z,5.2
2023-03-26T08:10:08.228Z,6.4
2023-03-26T08:15:08.092Z,8.8
2023-03-26T08:20:06.774Z,4.2
2023-03-26T08:25:07.181Z,4.7
2023-03-26T08:30:06.782Z,12.3
2023-03-26T08:35:07.248Z,5.1
2023-03-26T08:40:07.740Z,4.9
2023-03-26T08:45:08.562Z,3.6
2023-03-26T08:50:06.695Z,6.1
2023-03-26T08:55:06.415Z,4.8
2023-03-26T09:00:09.411Z,5.1
2023-03-26T09:05:07.010Z,3.7
2023-03-26T09:10:08.337Z,2.9
2023-03-26T09:15:08.342Z,3.8
2023-03-26T09:20:07.116Z,4.4
2023-03-26T09:25:07.026Z,5.2
2023-03-26T09:30:07.411Z,4.1
2023-03-26T09:35:06.614Z,2.9
2023-03-26T09:40:08.063Z,6.5
2023-03-26T09:45:09.065Z,6.1
2023-03-26T09:50:07.161Z,7.7
2023-03-26T09:55:06.436Z,3.9
2023-03-26T10:00:08.421Z,1.9
2023-03-26T10:05:07.108Z,2.5
2023-03-26T10:10:12.181Z,13.7
2023-03-26T10:15:09.344Z,4.8
2023-03-26T10:20:07.303Z,2.7
2023-03-26T10:25:06.947Z,3.8
2023-03-26T10:30:06.270Z,9.4
2023-03-26T10:35:06.695Z,9.8
2023-03-26T10:40:06.261Z,3.4
2023-03-26T10:45:06.856Z,4.6
2023-03-26T10:50:06.266Z,3
2023-03-26T10:55:06.950Z,3.2
2023-03-26T11:00:06.867Z,1.6
2023-03-26T11:05:06.352Z,5.1
2023-03-26T11:10:06.121Z,4.8
2023-03-26T11:15:06.610Z,4
2023-03-26T11:20:06.312Z,2.3
2023-03-26T11:25:06.138Z,3.2
2023-03-26T11:30:06.239Z,3.5
2023-03-26T11:35:06.431Z,3
2023-03-26T11:40:06.147Z,3.9
2023-03-26T11:45:06.450Z,3.2
2023-03-26T11:50:06.906Z,2.1
2023-03-26T11:55:06.302Z,2.1
2023-03-26T12:00:06.791Z,7.9
2023-03-26T12:05:06.238Z,3.5
2023-03-26T12:10:07.066Z,2.3
2023-03-26T12:15:06.577Z,2.8
2023-03-26T12:20:06.559Z,2.5
2023-03-26T12:25:06.261Z,2.8
2023-03-26T12:30:06.772Z,5.3
2023-03-26T12:35:06.140Z,4
2023-03-26T12:40:06.502Z,6.8
2023-03-26T12:45:06.479Z,8.3
2023-03-26T12:50:06.120Z,2.3
2023-03-26T12:55:07.025Z,4.7
2023-03-26T13:00:06.884Z,2.1
2023-03-26T13:05:06.300Z,6.5
2023-03-26T13:10:06.705Z,5.3
2023-03-26T13:15:06.907Z,3.4
2023-03-26T13:20:06.626Z,5.1
2023-03-26T13:25:07.081Z,2.3
2023-03-26T13:30:06.323Z,2.2
2023-03-26T13:35:06.388Z,6.3
2023-03-26T13:40:06.510Z,3.4
2023-03-26T13:45:06.135Z,6.8
2023-03-26T13:50:06.926Z,3.7
2023-03-26T13:55:06.850Z,2.2
2023-03-26T14:00:06.288Z,4.7
2023-03-26T14:05:06.885Z,8.8
2023-03-26T14:10:06.712Z,8.3
2023-03-26T14:15:06.784Z,5.9
2023-03-26T14:20:07.060Z,10.2
2023-03-26T14:25:06.859Z,11.7
2023-03-26T14:30:06.902Z,15.4
2023-03-26T14:35:06.621Z,19.1
2023-03-26T14:40:06.477Z,22
2023-03-26T14:45:06.468Z,35.2
2023-03-26T14:50:06.121Z,25.3
2023-03-26T14:55:06.855Z,36.5
2023-03-26T15:00:06.895Z,45
2023-03-26T15:05:06.269Z,1999.9
2023-03-26T15:10:06.444Z,1999.9
2023-03-26T15:15:06.927Z,1999.9
2023-03-26T15:20:06.484Z,92.9
2023-03-26T15:25:06.354Z,74.9
2023-03-26T15:30:06.183Z,27.6
2023-03-26T15:35:07.073Z,35.1
2023-03-26T15:40:06.652Z,21.8
2023-03-26T15:45:06.436Z,20
2023-03-26T15:50:06.661Z,10.2
2023-03-26T15:55:06.182Z,10.5
2023-03-26T16:00:06.967Z,6.6
2023-03-26T16:05:06.675Z,5.2
2023-03-26T16:10:06.860Z,15.4
2023-03-26T16:15:06.164Z,4.3
2023-03-26T16:20:06.916Z,35
2023-03-26T16:25:07.042Z,13
2023-03-26T16:30:06.446Z,11.4
2023-03-26T16:35:06.749Z,12.6
2023-03-26T16:40:06.283Z,8.8
2023-03-26T16:45:06.754Z,22.5
2023-03-26T16:50:06.365Z,5.3
2023-03-26T16:55:07.029Z,15.6
2023-03-26T17:00:06.610Z,10.9
2023-03-26T17:05:07.119Z,12.7
2023-03-26T17:10:06.138Z,9.2
2023-03-26T17:15:07.042Z,11.6
2023-03-26T17:20:06.793Z,19.6
2023-03-26T17:25:06.795Z,21.9
2023-03-26T17:30:06.561Z,19.9
2023-03-26T17:35:06.131Z,22.6
2023-03-26T17:40:06.219Z,18
2023-03-26T17:45:06.481Z,14.7
2023-03-26T17:50:06.385Z,9.6
2023-03-26T17:55:06.228Z,12.8
2023-03-26T18:00:06.908Z,21.8
2023-03-26T18:05:06.406Z,34
2023-03-26T18:10:06.492Z,29.6
2023-03-26T18:15:06.088Z,47
2023-03-26T18:20:06.401Z,50.1
2023-03-26T18:25:06.973Z,50.8
2023-03-26T18:30:06.311Z,36.1
2023-03-26T18:35:06.296Z,37.6
2023-03-26T18:40:06.734Z,22.2
2023-03-26T18:45:06.268Z,33.9
2023-03-26T18:50:06.933Z,22.6
2023-03-26T18:55:06.928Z,27.4
2023-03-26T19:00:06.380Z,32.2
2023-03-26T19:05:06.963Z,39.3
2023-03-26T19:10:06.528Z,31.4
2023-03-26T19:15:06.874Z,32.7
2023-03-26T19:20:06.093Z,28.1
2023-03-26T19:25:06.386Z,25.9
2023-03-26T19:30:06.875Z,31.3
2023-03-26T19:35:06.399Z,27.5
2023-03-26T19:40:06.430Z,25.9
2023-03-26T19:45:06.464Z,22.2
2023-03-26T19:50:06.862Z,24.3
2023-03-26T19:55:06.295Z,45.5
2023-03-26T20:00:06.809Z,24.4
2023-03-26T20:05:06.849Z,67.3
2023-03-26T20:10:06.445Z,55.5
2023-03-26T20:15:06.798Z,66.1
2023-03-26T20:20:06.306Z,65.4
2023-03-26T20:25:06.578Z,58.7
2023-03-26T20:30:06.933Z,56.7
2023-03-26T20:35:06.857Z,52.1
2023-03-26T20:40:06.337Z,59.2
2023-03-26T20:45:06.699Z,67.3
2023-03-26T20:50:06.121Z,54.2
2023-03-26T20:55:06.603Z,36.8
2023-03-26T21:00:07.136Z,32.3
2023-03-26T21:05:06.769Z,21.7
2023-03-26T21:10:06.319Z,19
2023-03-26T21:15:06.736Z,19.5
2023-03-26T21:20:06.298Z,29.2
2023-03-26T21:25:06.737Z,26.7
2023-03-26T21:30:06.278Z,22.1
2023-03-26T21:35:06.724Z,24.9
2023-03-26T21:40:06.193Z,17.1
2023-03-26T21:45:06.549Z,19.1
2023-03-26T21:50:06.136Z,21.7
2023-03-26T21:55:06.659Z,33.3
2023-03-26T22:00:06.378Z,25.6
2023-03-26T22:05:06.353Z,21.3
2023-03-26T22:10:06.348Z,25.3
2023-03-26T22:15:06.814Z,14.7
2023-03-26T22:20:06.225Z,17
2023-03-26T22:25:06.594Z,17.2
2023-03-26T22:30:06.937Z,50.5
2023-03-26T22:35:06.386Z,27.8
2023-03-26T22:40:06.992Z,19.2
2023-03-26T22:45:06.467Z,25
2023-03-26T22:50:06.734Z,21.1
2023-03-26T22:55:06.249Z,15.5
2023-03-26T23:00:06.763Z,19.7
2023-03-26T23:05:07.215Z,11
2023-03-26T23:10:06.512Z,15
2023-03-26T23:15:06.249Z,12.6
2023-03-26T23:20:06.933Z,16.7
2023-03-26T23:25:06.629Z,12.9
2023-03-26T23:30:07.052Z,15.4
2023-03-26T23:35:06.625Z,15.5
2023-03-26T23:40:06.254Z,10.6
2023-03-26T23:45:06.677Z,12.7
2023-03-26T23:50:06.136Z,11.4
2023-03-26T23:55:06.799Z,10.2
